createdAt,value
2023-04-15T00:04:46.820Z,7.93
2023-04-15T00:09:49.591Z,8.90
2023-04-15T00:14:57.360Z,8.17
2023-04-15T00:20:07.081Z,7.65
2023-04-15T00:25:09.753Z,7.53
2023-04-15T00:30:17.240Z,7.67
2023-04-15T00:35:26.941Z,7.57
2023-04-15T00:40:29.462Z,7.55
2023-04-15T00:45:32.233Z,7.30
2023-04-15T00:50:36.126Z,7.77
2023-04-15T00:55:38.689Z,7.80
2023-04-15T01:00:41.724Z,6.97
2023-04-15T01:05:44.217Z,7.88
2023-04-15T01:10:46.922Z,8.95
2023-04-15T01:15:49.411Z,8.77
2023-04-15T01:20:52.338Z,8.73
2023-04-15T01:25:55.080Z,8.60
2023-04-15T01:31:11.963Z,8.47
2023-04-15T01:36:15.704Z,8.80
2023-04-15T01:41:23.841Z,9.63
2023-04-15T01:46:28.653Z,8.65
2023-04-15T01:51:31.213Z,7.72
2023-04-15T01:56:33.977Z,8.57
2023-04-15T02:01:36.393Z,9.00
2023-04-15T02:06:38.907Z,8.82
2023-04-15T02:11:42.721Z,8.63
2023-04-15T02:16:45.262Z,8.07
2023-04-15T02:21:50.591Z,10.35
2023-04-15T02:26:57.919Z,9.27
2023-04-15T02:32:08.655Z,9.32
2023-04-15T02:37:12.413Z,8.90
2023-04-15T02:42:14.985Z,9.50
2023-04-15T02:47:19.979Z,9.30
2023-04-15T02:52:22.781Z,10.35
2023-04-15T02:57:25.307Z,8.67
2023-04-15T03:02:27.912Z,9.33
2023-04-15T03:07:30.788Z,10.03
2023-04-15T03:12:34.846Z,10.13
2023-04-15T03:17:42.066Z,10.63
2023-04-15T03:22:46.208Z,12.27
2023-04-15T03:27:48.733Z,11.20
2023-04-15T03:38:01.166Z,9.32
2023-04-15T03:43:03.691Z,10.18
2023-04-15T03:48:17.284Z,11.60
2023-04-15T03:53:21.690Z,14.27
2023-04-15T04:03:31.320Z,12.90
2023-04-15T04:08:34.276Z,12.25
2023-04-15T04:13:36.855Z,10.77
2023-04-15T04:18:42.360Z,10.93
2023-04-15T04:23:44.876Z,11.70
2023-04-15T04:28:47.741Z,11.43
2023-04-15T04:33:50.211Z,10.50
2023-04-15T04:38:54.764Z,13.75
2023-04-15T04:44:02.112Z,12.25
2023-04-15T04:49:07.968Z,13.60
2023-04-15T04:54:12.560Z,11.82
2023-04-15T04:59:15.609Z,13.85
2023-04-15T05:04:19.139Z,13.25
2023-04-15T05:09:21.688Z,14.57
2023-04-15T05:14:24.153Z,13.70
2023-04-15T05:19:26.631Z,13.07
2023-04-15T05:24:29.497Z,13.02
2023-04-15T05:29:51.938Z,15.20
2023-04-15T05:34:54.501Z,16.90
2023-04-15T05:39:57.106Z,16.88
2023-04-15T05:45:09.227Z,17.30
2023-04-15T05:50:11.945Z,19.17
2023-04-15T05:55:14.737Z,17.87
2023-04-15T06:00:17.403Z,16.63
2023-04-15T06:05:20.221Z,16.57
2023-04-15T06:10:25.183Z,14.77
2023-04-15T06:15:27.648Z,20.67
2023-04-15T06:20:30.299Z,19.00
2023-04-15T06:25:32.796Z,22.57
2023-04-15T06:30:36.309Z,20.27
2023-04-15T06:35:43.334Z,17.52
2023-04-15T06:40:47.916Z,18.77
2023-04-15T06:45:51.344Z,18.23
2023-04-15T06:55:57.085Z,19.65
2023-04-15T07:00:59.580Z,18.20
2023-04-15T07:06:06.636Z,17.40
2023-04-15T07:11:09.304Z,18.67
2023-04-15T07:16:12.689Z,18.03
2023-04-15T07:21:15.315Z,18.20
2023-04-15T07:26:17.805Z,18.33
2023-04-15T07:31:20.291Z,19.98
2023-04-15T07:36:22.778Z,21.33
2023-04-15T07:41:27.862Z,20.40
2023-04-15T07:46:30.893Z,19.73
2023-04-15T07:51:33.542Z,17.85
2023-04-15T07:56:36.102Z,19.03
2023-04-15T08:01:39.577Z,20.63
2023-04-15T08:06:52.812Z,18.60
2023-04-15T08:11:57.378Z,20.73
2023-04-15T08:22:02.691Z,18.13
2023-04-15T08:27:09.116Z,17.58
2023-04-15T08:32:11.734Z,22.13
2023-04-15T08:37:14.450Z,21.20
2023-04-15T08:42:24.286Z,21.33
2023-04-15T08:47:32.319Z,17.70
2023-04-15T08:52:34.912Z,19.13
2023-04-15T08:57:38.328Z,20.20
2023-04-15T09:02:41.476Z,19.42
2023-04-15T09:07:45.899Z,18.10
2023-04-15T09:12:48.385Z,19.65
2023-04-15T09:17:52.159Z,18.08
2023-04-15T09:22:54.781Z,22.05
2023-04-15T09:28:02.019Z,78.73
2023-04-15T09:33:11.150Z,56.47
2023-04-15T09:38:13.627Z,28.13
2023-04-15T09:43:17.560Z,25.97
2023-04-15T09:48:31.508Z,17.92
2023-04-15T09:53:36.753Z,13.85
2023-04-15T09:58:41.874Z,14.88
2023-04-15T10:03:45.958Z,13.43
2023-04-15T10:08:48.565Z,13.63
2023-04-15T10:13:51.841Z,13.13
2023-04-15T10:19:01.498Z,12.18
2023-04-15T10:24:05.615Z,11.30
2023-04-15T10:29:10.146Z,10.35
2023-04-15T10:34:14.235Z,11.38
2023-04-15T10:39:35.288Z,9.63
2023-04-15T10:44:43.928Z,9.30
2023-04-15T10:49:58.261Z,8.30
2023-04-15T10:55:20.616Z,7.68
2023-04-15T11:00:30.850Z,7.65
2023-04-15T11:05:39.680Z,8.35
2023-04-15T11:10:42.297Z,7.15
2023-04-15T11:15:57.042Z,7.97
2023-04-15T11:21:07.330Z,10.77
2023-04-15T11:26:12.580Z,8.70
2023-04-15T11:31:18.192Z,6.97
2023-04-15T11:36:29.189Z,6.22
2023-04-15T11:41:31.792Z,7.25
2023-04-15T11:46:36.180Z,6.33
2023-04-15T11:51:38.820Z,6.53
2023-04-15T11:56:41.720Z,8.23
2023-04-15T12:01:47.032Z,6.70
2023-04-15T12:06:49.776Z,6.65
2023-04-15T12:23:12.230Z,6.10
2023-04-15T12:28:15.517Z,5.70
2023-04-15T12:33:18.127Z,5.68
2023-04-15T12:38:20.855Z,16.08
2023-04-15T12:43:23.657Z,8.53
2023-04-15T12:48:35.306Z,9.65
2023-04-15T12:53:39.317Z,9.38
2023-04-15T12:58:45.206Z,5.95
2023-04-15T13:03:48.558Z,7.45
2023-04-15T13:08:58.579Z,6.35
2023-04-15T13:14:09.204Z,6.40
2023-04-15T13:19:11.738Z,6.88
2023-04-15T13:24:14.493Z,6.13
2023-04-15T13:29:17.313Z,4.72
2023-04-15T13:34:19.750Z,7.57
2023-04-15T13:39:43.186Z,9.23
2023-04-15T13:44:52.098Z,5.07
2023-04-15T13:49:58.304Z,6.20
2023-04-15T13:55:18.154Z,5.55
2023-04-15T14:00:27.209Z,5.70
2023-04-15T14:05:30.681Z,8.20
2023-04-15T14:15:47.528Z,4.35
2023-04-15T14:20:51.162Z,5.45
2023-04-15T14:25:53.798Z,4.17
2023-04-15T14:30:56.501Z,4.50
2023-04-15T14:35:59.060Z,5.63
2023-04-15T14:41:01.657Z,5.23
2023-04-15T14:46:09.581Z,6.20
2023-04-15T14:51:16.619Z,6.10
2023-04-15T14:56:21.517Z,7.10
2023-04-15T15:01:24.365Z,13.73
2023-04-15T15:06:26.986Z,12.30
2023-04-15T15:11:29.956Z,11.67
2023-04-15T15:16:34.540Z,12.05
2023-04-15T15:21:38.173Z,18.35
2023-04-15T15:26:44.043Z,18.08
2023-04-15T15:31:49.271Z,103.28
2023-04-15T15:36:51.813Z,25.98
2023-04-15T15:41:54.418Z,20.87
2023-04-15T15:46:57.051Z,20.83
2023-04-15T15:51:59.910Z,10.75
2023-04-15T15:57:05.089Z,13.88
2023-04-15T16:07:23.684Z,10.90
2023-04-15T16:12:26.354Z,15.75
2023-04-15T16:17:28.879Z,12.87
2023-04-15T16:22:35.298Z,12.87
2023-04-15T16:27:53.784Z,13.45
2023-04-15T16:33:00.243Z,16.10
2023-04-15T16:38:03.327Z,12.83
2023-04-15T16:43:07.651Z,10.65
2023-04-15T16:48:10.343Z,13.45
2023-04-15T16:53:12.969Z,11.30
2023-04-15T16:58:15.761Z,15.57
2023-04-15T17:03:19.364Z,22.50
2023-04-15T17:08:24.781Z,23.15
2023-04-15T17:13:37.508Z,15.32
2023-04-15T17:18:40.439Z,20.83
2023-04-15T17:23:43.500Z,21.73
2023-04-15T17:28:46.682Z,22.15
2023-04-15T17:34:01.518Z,32.20
2023-04-15T17:39:27.864Z,30.70
2023-04-15T17:44:33.368Z,47.78
2023-04-15T17:49:37.957Z,39.40
2023-04-15T17:54:40.509Z,27.55
2023-04-15T17:59:47.675Z,24.83
2023-04-15T18:04:50.883Z,29.02
2023-04-15T18:09:56.235Z,23.92
2023-04-15T18:14:59.159Z,24.92
2023-04-15T18:20:02.194Z,31.63
2023-04-15T18:25:06.840Z,29.50
2023-04-15T18:30:13.156Z,30.63
2023-04-15T18:35:17.298Z,27.52
2023-04-15T18:40:19.834Z,34.47
2023-04-15T18:45:22.298Z,34.30
2023-04-15T18:50:26.666Z,39.83
2023-04-15T18:55:30.047Z,41.47
2023-04-15T19:00:32.663Z,32.90
2023-04-15T19:05:36.020Z,27.03
2023-04-15T19:10:39.154Z,23.58
2023-04-15T19:15:41.959Z,19.48
2023-04-15T19:20:45.072Z,17.57
2023-04-15T19:25:51.813Z,20.42
2023-04-15T19:30:54.762Z,50.67
2023-04-15T19:36:03.981Z,43.88
2023-04-15T19:41:07.580Z,36.63
2023-04-15T19:46:13.473Z,54.13
2023-04-15T19:51:17.087Z,65.25
2023-04-15T19:56:20.392Z,36.47
2023-04-15T20:01:23.357Z,30.25
2023-04-15T20:06:27.692Z,32.10
2023-04-15T20:12:10.041Z,37.05
2023-04-15T20:16:57.142Z,37.25
2023-04-15T20:22:01.092Z,47.13
2023-04-15T20:27:04.176Z,46.47
2023-04-15T20:32:07.015Z,38.97
2023-04-15T20:37:12.355Z,34.40
2023-04-15T20:42:14.904Z,30.13
2023-04-15T20:47:17.614Z,29.10
2023-04-15T20:52:20.309Z,35.65
2023-04-15T20:57:24.817Z,35.53
2023-04-15T21:02:27.481Z,42.08
2023-04-15T21:07:30.208Z,46.17
2023-04-15T21:12:32.725Z,51.78
2023-04-15T21:17:35.760Z,58.40
2023-04-15T21:22:38.575Z,52.75
2023-04-15T21:27:44.121Z,48.40
2023-04-15T21:32:46.781Z,43.50
2023-04-15T21:37:49.215Z,40.13
2023-04-15T21:42:51.801Z,40.90
2023-04-15T21:48:01.372Z,40.25
2023-04-15T21:53:10.639Z,40.08
2023-04-15T21:58:13.237Z,45.07
2023-04-15T22:03:16.281Z,49.25
2023-04-15T22:08:18.884Z,49.00
2023-04-15T22:13:22.909Z,46.67
2023-04-15T22:18:26.116Z,47.78
2023-04-15T22:23:29.663Z,49.28
2023-04-15T22:28:32.225Z,48.90
2023-04-15T22:33:36.422Z,44.20
2023-04-15T22:38:39.497Z,44.50
2023-04-15T22:43:42.004Z,43.88
2023-04-15T22:48:46.142Z,43.97
2023-04-15T22:53:48.790Z,44.20
2023-04-15T22:58:52.395Z,42.37
2023-04-15T23:08:59.739Z,47.58
2023-04-15T23:14:02.254Z,43.55
2023-04-15T23:19:04.799Z,37.15
2023-04-15T23:24:07.276Z,32.83
2023-04-15T23:29:10.373Z,32.88
2023-04-15T23:34:13.100Z,27.58
2023-04-15T23:39:16.032Z,24.63
2023-04-15T23:44:19.190Z,24.88
2023-04-15T23:49:21.619Z,23.33
2023-04-15T23:54:26.137Z,20.70
2023-04-15T23:59:29.797Z,22.52
